.
WxDataArchive / Data Records for 2012-10-27
2012-10-26 October 2012 2012-10-28

Data Records for Saturday, 27 October 2012

Time	Temp	Chill	HIndex	Humid	Dewpt	 Wind 	HiWind	WindDir	Rain 	Barom 
-----	----	-----	------	-----	-----	------	------	-------	-----	----- 
00:00	43.6	43.6	43.6	64	32.2	1	2	315	0.00	30.219 
00:05	43.5	43.5	43.5	64	32.1	1	2	315	0.00	30.219 
00:10	43.5	43.5	43.5	64	32.1	0	2	338	0.00	30.219 
00:15	43.5	43.5	43.5	64	32.1	0	2	338	0.00	30.219 
00:20	43.3	43.3	43.3	64	32.0	1	3	338	0.00	30.219 
00:25	43.3	43.3	43.3	64	32.0	1	2	338	0.00	30.219 
00:30	43.3	43.3	43.3	64	32.0	1	3	338	0.00	30.216 
00:35	43.2	43.2	43.2	64	31.9	0	2	338	0.00	30.216 
00:40	43.1	43.1	43.1	65	32.1	0	1	338	0.00	30.216 
00:45	42.9	42.9	42.9	65	32.0	0	3	338	0.00	30.207 
00:50	42.6	42.6	42.6	65	31.7	0	2	338	0.00	30.207 
00:55	42.5	42.5	42.5	65	31.6	1	3	338	0.00	30.207 
01:00	42.2	42.2	42.2	66	31.7	1	3	338	0.00	30.203 
01:05	41.9	41.9	41.9	66	31.4	1	2	338	0.00	30.203 
01:10	41.6	41.6	41.6	67	31.5	0	2	338	0.00	30.203 
01:15	41.6	41.6	41.6	67	31.5	0	2	338	0.00	30.206 
01:20	41.5	41.5	41.5	68	31.7	0	2	338	0.00	30.206 
01:25	41.5	41.5	41.5	68	31.7	1	3	338	0.00	30.206 
01:30	41.5	41.5	41.5	69	32.1	0	2	338	0.00	30.195 
01:35	41.3	41.3	41.3	69	31.9	1	3	338	0.00	30.195 
01:40	41.3	41.3	41.3	69	31.9	1	3	338	0.00	30.195 
01:45	41.3	41.3	41.3	69	31.9	0	2	338	0.00	30.192 
01:50	41.3	41.3	41.3	69	31.9	0	2	338	0.00	30.192 
01:55	41.3	41.3	41.3	69	31.9	2	5	338	0.00	30.192 
02:00	41.3	41.3	41.3	69	31.9	1	3	338	0.00	30.191 
02:05	41.3	41.3	41.3	69	31.9	1	2	338	0.00	30.191 
02:10	41.3	41.3	41.3	69	31.9	1	4	338	0.00	30.191 
02:15	41.2	41.2	41.2	69	31.8	1	5	338	0.00	30.193 
02:20	41.2	41.2	41.2	69	31.8	1	4	315	0.00	30.193 
02:25	41.1	41.1	41.1	69	31.7	1	3	338	0.00	30.193 
02:30	41.1	41.1	41.1	70	32.1	1	4	292	0.00	30.190 
02:35	40.9	40.9	40.9	70	31.9	2	9	338	0.00	30.190 
02:40	40.9	40.9	40.9	70	31.9	1	5	0	0.00	30.190 
02:45	40.9	40.9	40.9	70	31.9	2	9	338	0.00	30.192 
02:50	40.8	40.8	40.8	71	32.1	1	3	338	0.00	30.192 
02:55	40.6	40.6	40.6	71	31.9	1	5	315	0.00	30.192 
03:00	40.5	40.5	40.5	72	32.2	1	3	338	0.00	30.192 
03:05	40.3	40.3	40.3	72	32.0	2	5	315	0.00	30.192 
03:10	40.2	40.2	40.2	72	31.9	1	4	315	0.00	30.192 
03:15	40.1	40.1	40.1	73	32.2	1	3	338	0.00	30.191 
03:20	39.8	39.8	39.8	73	31.9	2	6	338	0.00	30.191 
03:25	39.5	39.5	39.5	73	31.6	1	2	338	0.00	30.191 
03:30	39.3	39.3	39.3	73	31.4	1	3	338	0.00	30.194 
03:35	39.1	39.1	39.1	74	31.5	1	4	338	0.00	30.194 
03:40	38.8	38.8	38.8	75	31.6	1	3	315	0.00	30.194 
03:45	38.6	38.6	38.6	75	31.4	1	3	0	0.00	30.192 
03:50	38.5	38.5	38.5	75	31.3	1	3	338	0.00	30.192 
03:55	38.3	38.3	38.3	76	31.4	1	3	270	0.00	30.192 
04:00	38.2	38.2	38.2	76	31.3	1	4	292	0.00	30.194 
04:05	38.0	38.0	38.0	77	31.4	0	2	315	0.00	30.194 
04:10	37.9	37.9	37.9	77	31.3	1	2	338	0.00	30.194 
04:15	37.8	37.8	37.8	77	31.2	1	2	338	0.00	30.188 
04:20	37.6	37.6	37.6	77	31.1	0	2	338	0.00	30.188 
04:25	37.5	37.5	37.5	78	31.3	1	3	292	0.00	30.188 
04:30	37.3	37.3	37.3	78	31.1	1	3	292	0.00	30.191 
04:35	37.2	37.2	37.2	78	31.0	1	3	292	0.00	30.191 
04:40	37.2	37.2	37.2	78	31.0	1	2	315	0.00	30.191 
04:45	37.2	37.2	37.2	78	31.0	1	3	315	0.00	30.186 
04:50	37.0	37.0	37.0	78	30.8	0	2	315	0.00	30.186 
04:55	37.0	37.0	37.0	78	30.8	1	3	315	0.00	30.186 
05:00	36.9	36.9	36.9	78	30.7	1	4	315	0.00	30.183 
05:05	36.9	36.9	36.9	78	30.7	1	3	338	0.00	30.183 
05:10	36.9	36.9	36.9	78	30.7	1	3	338	0.00	30.183 
05:15	36.9	36.9	36.9	78	30.7	1	3	315	0.00	30.177 
05:20	36.9	36.9	36.9	78	30.7	1	3	338	0.00	30.177 
05:25	36.9	36.9	36.9	77	30.4	2	4	338	0.00	30.177 
05:30	36.9	36.9	36.9	77	30.4	1	3	338	0.00	30.178 
05:35	37.0	37.0	37.0	77	30.5	1	4	338	0.00	30.178 
05:40	37.0	37.0	37.0	77	30.5	1	5	338	0.00	30.178 
05:45	36.9	36.9	36.9	77	30.4	1	4	338	0.00	30.180 
05:50	37.0	37.0	37.0	77	30.5	1	3	338	0.00	30.180 
05:55	36.9	36.9	36.9	77	30.4	1	5	338	0.00	30.180 
06:00	37.0	37.0	37.0	77	30.5	1	3	338	0.00	30.188 
06:05	36.9	36.9	36.9	77	30.4	1	4	315	0.00	30.188 
06:10	36.9	36.9	36.9	77	30.4	1	4	315	0.00	30.188 
06:15	36.9	36.9	36.9	77	30.4	1	6	315	0.00	30.187 
06:20	36.9	36.9	36.9	77	30.4	1	4	315	0.00	30.187 
06:25	36.9	36.9	36.9	77	30.4	1	3	315	0.00	30.187 
06:30	36.9	36.9	36.9	77	30.4	1	3	315	0.00	30.190 
06:35	36.9	36.9	36.9	77	30.4	1	4	315	0.00	30.190 
06:40	36.9	36.9	36.9	77	30.4	1	4	315	0.00	30.190 
06:45	36.9	36.9	36.9	77	30.4	1	3	315	0.00	30.194 
06:50	36.9	36.9	36.9	77	30.4	1	4	338	0.00	30.194 
06:55	36.9	36.9	36.9	77	30.4	1	3	338	0.00	30.194 
07:00	36.9	36.9	36.9	78	30.7	1	2	315	0.00	30.196 
07:05	36.8	36.8	36.8	78	30.6	1	5	315	0.00	30.196 
07:10	36.8	36.8	36.8	78	30.6	1	2	338	0.00	30.196 
07:15	36.8	36.8	36.8	78	30.6	1	3	338	0.00	30.198 
07:20	36.8	36.8	36.8	78	30.6	1	2	338	0.00	30.198 
07:25	36.8	36.8	36.8	78	30.6	1	3	338	0.00	30.198 
07:30	36.8	36.8	36.8	78	30.6	1	4	338	0.00	30.199 
07:35	36.8	36.8	36.8	78	30.6	1	3	338	0.00	30.199 
07:40	36.9	36.9	36.9	78	30.7	1	3	270	0.00	30.199 
07:45	36.9	36.9	36.9	78	30.7	1	4	338	0.00	30.205 
07:50	36.9	36.9	36.9	78	30.7	0	2	315	0.00	30.205 
07:55	36.9	36.9	36.9	77	30.4	1	4	315	0.00	30.205 
08:00	36.9	36.9	36.9	77	30.4	1	3	315	0.00	30.210 
08:05	37.0	37.0	37.0	77	30.5	1	3	338	0.00	30.210 
08:10	37.0	37.0	37.0	77	30.5	1	4	338	0.00	30.210 
08:15	37.0	37.0	37.0	77	30.5	1	4	0	0.00	30.215 
08:20	37.0	37.0	37.0	77	30.5	1	3	0	0.00	30.215 
08:25	36.9	36.9	36.9	77	30.4	0	2	338	0.00	30.215 
08:30	36.9	36.9	36.9	77	30.4	1	3	338	0.00	30.223 
08:35	36.9	36.9	36.9	77	30.4	0	3	338	0.00	30.223 
08:40	36.9	36.9	36.9	77	30.4	0	2	338	0.00	30.223 
08:45	36.9	36.9	36.9	77	30.4	0	2	338	0.00	30.227 
08:50	37.0	37.0	37.0	77	30.5	0	2	338	0.00	30.227 
08:55	37.2	37.2	37.2	77	30.7	0	2	338	0.00	30.227 
09:00	37.5	37.5	37.5	76	30.6	1	3	0	0.00	30.224 
09:05	37.8	37.8	37.8	75	30.6	1	3	0	0.00	30.224 
09:10	38.2	38.2	38.2	74	30.7	1	3	338	0.00	30.224 
09:15	38.5	38.5	38.5	73	30.6	1	3	338	0.00	30.227 
09:20	38.8	38.8	38.8	73	30.9	1	4	338	0.00	30.227 
09:25	38.9	38.9	38.9	72	30.7	1	4	338	0.00	30.227 
09:30	39.3	39.3	39.3	71	30.7	1	3	338	0.00	30.225 
09:35	39.6	39.6	39.6	70	30.6	1	5	90	0.00	30.225 
09:40	40.1	40.1	40.1	69	30.8	1	4	338	0.00	30.225 
09:45	40.5	40.5	40.5	68	30.8	1	3	0	0.00	30.218 
09:50	40.8	40.8	40.8	68	31.1	1	4	0	0.00	30.218 
09:55	41.2	41.2	41.2	67	31.1	1	5	338	0.00	30.218 
10:00	41.6	41.6	41.6	66	31.1	2	4	338	0.00	30.225 
10:05	42.1	42.1	42.1	66	31.6	1	4	338	0.00	30.225 
10:10	42.5	42.5	42.5	65	31.6	1	5	315	0.00	30.225 
10:15	42.8	42.8	42.8	63	31.1	1	4	0	0.00	30.222 
10:20	43.2	43.2	43.2	62	31.1	2	4	315	0.00	30.222 
10:25	43.5	43.5	43.5	62	31.4	1	5	338	0.00	30.222 
10:30	43.9	43.9	43.9	61	31.3	1	4	338	0.00	30.216 
10:35	44.5	44.5	44.5	62	32.3	1	4	68	0.00	30.216 
10:40	44.8	44.8	44.8	59	31.4	1	5	338	0.00	30.216 
10:45	45.1	45.1	45.1	59	31.6	1	4	338	0.00	30.209 
10:50	45.2	45.2	45.2	59	31.7	1	4	338	0.00	30.209 
10:55	45.8	45.8	45.8	58	31.9	1	7	338	0.00	30.209 
11:00	46.0	46.0	46.0	56	31.2	2	6	338	0.00	30.213 
11:05	46.2	46.2	46.2	57	31.8	1	5	338	0.00	30.213 
11:10	46.5	46.5	46.5	57	32.1	1	4	0	0.00	30.213 
11:15	46.8	46.8	46.8	55	31.5	2	5	338	0.00	30.210 
11:20	47.0	47.0	47.0	54	31.2	2	5	0	0.00	30.210 
11:25	47.1	47.1	47.1	54	31.3	2	5	315	0.00	30.210 
11:30	47.4	47.4	47.4	54	31.6	2	5	315	0.00	30.212 
11:35	48.2	48.2	48.2	54	32.3	1	3	112	0.00	30.212 
11:40	48.3	48.3	48.3	54	32.4	1	3	0	0.00	30.212 
11:45	48.5	48.5	48.5	54	32.6	1	6	0	0.00	30.210 
11:50	48.6	48.6	48.6	55	33.2	1	4	292	0.00	30.210 
11:55	49.1	49.1	49.1	53	32.7	1	4	22	0.00	30.210 
12:00	48.9	48.9	48.9	52	32.1	1	7	0	0.00	30.204 
12:05	48.8	48.8	48.8	52	32.0	2	6	338	0.00	30.204 
12:10	49.1	49.1	49.1	52	32.2	1	4	338	0.00	30.204 
12:15	49.1	49.1	49.1	52	32.2	1	4	338	0.00	30.204 
12:20	49.5	49.5	49.5	52	32.6	1	7	315	0.00	30.204 
12:25	49.9	49.9	49.9	50	32.0	1	4	68	0.00	30.204 
12:30	50.2	50.2	50.2	53	33.7	1	4	135	0.00	30.203 
12:35	50.1	50.1	50.1	50	32.2	1	3	0	0.00	30.203 
12:40	50.4	50.4	50.4	55	34.8	0	1	338	0.00	30.203 
12:45	50.2	50.2	50.2	50	32.3	2	5	338	0.00	30.195 
12:50	50.2	50.2	50.2	53	33.7	1	4	0	0.00	30.195 
12:55	50.4	50.4	50.4	54	34.4	1	4	0	0.00	30.195 
13:00	50.7	50.7	50.7	52	33.7	1	5	90	0.00	30.187 
13:05	50.7	50.7	50.7	50	32.7	1	4	315	0.00	30.187 
13:10	50.7	50.7	50.7	51	33.2	1	3	315	0.00	30.187 
13:15	50.7	50.7	50.7	50	32.7	1	3	338	0.00	30.179 
13:20	50.7	50.7	50.7	50	32.7	1	4	338	0.00	30.179 
13:25	50.7	50.7	50.7	50	32.7	2	6	338	0.00	30.179 
13:30	50.5	50.5	50.5	50	32.6	1	3	0	0.00	30.169 
13:35	50.8	50.8	50.8	53	34.3	1	3	338	0.00	30.169 
13:40	51.1	51.1	51.1	52	34.1	0	3	45	0.00	30.169 
13:45	51.1	51.1	51.1	49	32.6	2	4	270	0.00	30.160 
13:50	50.8	50.8	50.8	48	31.8	3	10	338	0.00	30.160 
13:55	51.0	51.0	51.0	49	32.5	1	6	0	0.00	30.160 
14:00	51.1	51.1	51.1	48	32.1	1	4	338	0.00	30.155 
14:05	51.3	51.3	51.3	49	32.8	1	4	90	0.00	30.155 
14:10	51.1	51.1	51.1	46	31.0	2	10	315	0.00	30.155 
14:15	51.0	51.0	51.0	47	31.5	1	3	338	0.00	30.152 
14:20	51.3	51.3	51.3	47	31.8	1	7	22	0.00	30.152 
14:25	51.4	51.4	51.4	48	32.4	1	6	0	0.00	30.152 
14:30	51.7	51.7	51.7	46	31.6	1	5	315	0.00	30.148 
14:35	51.7	51.7	51.7	49	33.2	1	5	315	0.00	30.148 
14:40	51.9	51.9	51.9	48	32.8	1	5	315	0.00	30.148 
14:45	51.9	51.9	51.9	46	31.8	1	5	45	0.00	30.141 
14:50	52.0	52.0	52.0	47	32.4	1	3	315	0.00	30.141 
14:55	51.9	51.9	51.9	46	31.8	1	4	315	0.00	30.141 
15:00	52.0	52.0	52.0	48	32.9	1	4	112	0.00	30.140 
15:05	52.2	52.2	52.2	48	33.1	1	4	338	0.00	30.140 
15:10	52.5	52.5	52.5	45	31.8	1	4	90	0.00	30.140 
15:15	52.3	52.3	52.3	43	30.5	2	6	315	0.00	30.140 
15:20	52.3	52.3	52.3	45	31.6	1	5	315	0.00	30.140 
15:25	52.3	52.3	52.3	44	31.0	1	3	338	0.00	30.140 
15:30	52.5	52.5	52.5	46	32.3	1	4	315	0.00	30.133 
15:35	52.5	52.5	52.5	46	32.3	1	5	0	0.00	30.133 
15:40	52.5	52.5	52.5	43	30.7	1	2	0	0.00	30.133 
15:45	52.6	52.6	52.6	43	30.7	1	7	0	0.00	30.136 
15:50	52.6	52.6	52.6	43	30.7	1	5	0	0.00	30.136 
15:55	52.8	52.8	52.8	41	29.8	1	2	0	0.00	30.136 
16:00	52.9	52.9	52.9	42	30.4	1	3	338	0.00	30.136 
16:05	52.6	52.6	52.6	40	29.0	2	5	338	0.00	30.136 
16:10	52.6	52.6	52.6	42	30.2	1	3	338	0.00	30.136 
16:15	52.5	52.5	52.5	40	28.9	2	5	338	0.00	30.127 
16:20	52.3	52.3	52.3	42	29.9	2	5	338	0.00	30.127 
16:25	52.2	52.2	52.2	39	28.0	1	4	338	0.00	30.127 
16:30	52.3	52.3	52.3	40	28.7	1	4	22	0.00	30.138 
16:35	52.5	52.5	52.5	38	27.6	1	3	292	0.00	30.138 
16:40	52.5	52.5	52.5	38	27.6	1	3	338	0.00	30.138 
16:45	52.5	52.5	52.5	38	27.6	1	3	338	0.00	30.141 
16:50	52.3	52.3	52.3	39	28.1	1	5	0	0.00	30.141 
16:55	52.3	52.3	52.3	39	28.1	1	6	315	0.00	30.141 
17:00	52.0	52.0	52.0	37	26.5	1	4	315	0.00	30.141 
17:05	52.0	52.0	52.0	38	27.2	1	3	0	0.00	30.141 
17:10	52.0	52.0	52.0	37	26.5	1	4	22	0.00	30.141 
17:15	51.7	51.7	51.7	36	25.6	1	4	315	0.00	30.141 
17:20	51.7	51.7	51.7	35	24.9	1	4	315	0.00	30.141 
17:25	51.6	51.6	51.6	36	25.5	1	4	338	0.00	30.141 
17:30	51.4	51.4	51.4	34	24.0	2	5	338	0.00	30.140 
17:35	51.3	51.3	51.3	35	24.6	2	5	338	0.00	30.140 
17:40	51.3	51.3	51.3	37	25.9	0	4	338	0.00	30.140 
17:45	51.0	51.0	51.0	36	25.0	1	3	338	0.00	30.143 
17:50	50.8	50.8	50.8	36	24.8	1	4	270	0.00	30.143 
17:55	50.7	50.7	50.7	36	24.7	1	2	292	0.00	30.143 
18:00	50.5	50.5	50.5	36	24.6	1	2	292	0.00	30.142 
18:05	50.4	50.4	50.4	36	24.5	1	4	292	0.00	30.142 
18:10	50.4	50.4	50.4	36	24.5	1	4	315	0.00	30.142 
18:15	50.1	50.1	50.1	36	24.2	0	2	315	0.00	30.149 
18:20	49.9	49.9	49.9	37	24.7	0	3	315	0.00	30.149 
18:25	49.6	49.6	49.6	37	24.4	0	3	315	0.00	30.149 
18:30	49.4	49.4	49.4	38	24.9	0	1	315	0.00	30.162 
18:35	49.1	49.1	49.1	38	24.6	0	2	315	0.00	30.162 
18:40	48.8	48.8	48.8	39	25.0	0	1	315	0.00	30.162 
18:45	48.5	48.5	48.5	39	24.7	0	1	315	0.00	30.172 
18:50	48.3	48.3	48.3	39	24.5	0	1	315	0.00	30.172 
18:55	48.0	48.0	48.0	39	24.2	0	1	315	0.00	30.172 
19:00	47.9	47.9	47.9	40	24.8	0	2	315	0.00	30.176 
19:05	47.7	47.7	47.7	40	24.6	0	1	315	0.00	30.176 
19:10	47.4	47.4	47.4	40	24.3	0	1	315	0.00	30.176 
19:15	47.3	47.3	47.3	40	24.2	0	1	315	0.00	30.178 
19:20	47.1	47.1	47.1	41	24.6	0	1	315	0.00	30.178 
19:25	47.0	47.0	47.0	41	24.5	0	1	315	0.00	30.178 
19:30	46.8	46.8	46.8	42	24.9	0	1	315	0.00	30.178 
19:35	46.5	46.5	46.5	42	24.7	0	1	315	0.00	30.178 
19:40	46.4	46.4	46.4	43	25.1	0	0	---	0.00	30.178 
19:45	46.2	46.2	46.2	43	25.0	0	0	---	0.00	30.188 
19:50	46.1	46.1	46.1	44	25.4	0	1	315	0.00	30.188 
19:55	45.7	45.7	45.7	44	25.0	0	0	---	0.00	30.188 
20:00	45.4	45.4	45.4	45	25.3	0	0	---	0.00	30.196 
20:05	45.1	45.1	45.1	45	25.0	0	0	---	0.00	30.196 
20:10	44.9	44.9	44.9	45	24.9	0	0	---	0.00	30.196 
20:15	44.9	44.9	44.9	46	25.4	0	0	---	0.00	30.196 
20:20	44.8	44.8	44.8	46	25.3	0	0	---	0.00	30.196 
20:25	44.6	44.6	44.6	46	25.1	0	0	---	0.00	30.196 
20:30	44.5	44.5	44.5	46	25.0	0	0	---	0.00	30.196 
20:35	44.3	44.3	44.3	47	25.4	0	0	---	0.00	30.196 
20:40	44.2	44.2	44.2	47	25.3	0	0	---	0.00	30.196 
20:45	44.2	44.2	44.2	47	25.3	0	0	---	0.00	30.195 
20:50	44.1	44.1	44.1	47	25.2	0	1	315	0.00	30.195 
20:55	43.9	43.9	43.9	48	25.5	0	0	---	0.00	30.195 
21:00	43.8	43.8	43.8	48	25.4	0	1	315	0.00	30.195 
21:05	43.8	43.8	43.8	48	25.4	0	1	315	0.00	30.195 
21:10	43.6	43.6	43.6	49	25.7	0	0	---	0.00	30.195 
21:15	43.5	43.5	43.5	49	25.6	0	1	315	0.00	30.193 
21:20	43.3	43.3	43.3	49	25.4	0	0	---	0.00	30.193 
21:25	43.2	43.2	43.2	50	25.8	0	0	---	0.00	30.193 
21:30	43.1	43.1	43.1	50	25.7	0	0	---	0.00	30.194 
21:35	42.9	42.9	42.9	51	26.0	0	0	---	0.00	30.194 
21:40	42.6	42.6	42.6	52	26.2	0	0	---	0.00	30.194 
21:45	42.3	42.3	42.3	52	25.9	0	0	---	0.00	30.198 
21:50	42.2	42.2	42.2	53	26.3	0	0	---	0.00	30.198 
21:55	42.1	42.1	42.1	53	26.2	0	0	---	0.00	30.198 
22:00	41.9	41.9	41.9	54	26.5	0	0	---	0.00	30.197 
22:05	41.8	41.8	41.8	54	26.4	0	0	---	0.00	30.197 
22:10	41.8	41.8	41.8	55	26.8	0	0	---	0.00	30.197 
22:15	41.8	41.8	41.8	55	26.8	0	0	---	0.00	30.194 
22:20	41.8	41.8	41.8	55	26.8	0	1	315	0.00	30.194 
22:25	41.6	41.6	41.6	56	27.1	0	1	315	0.00	30.194 
22:30	41.8	41.8	41.8	56	27.3	0	1	315	0.00	30.197 
22:35	41.8	41.8	41.8	56	27.3	0	1	315	0.00	30.197 
22:40	41.9	41.9	41.9	56	27.4	0	1	315	0.00	30.197 
22:45	41.8	41.8	41.8	57	27.7	0	1	315	0.00	30.200 
22:50	41.8	41.8	41.8	57	27.7	0	1	315	0.00	30.200 
22:55	41.6	41.6	41.6	57	27.5	0	0	---	0.00	30.200 
23:00	41.6	41.6	41.6	58	27.9	0	0	---	0.00	30.194 
23:05	41.5	41.5	41.5	58	27.8	0	0	---	0.00	30.194 
23:10	41.5	41.5	41.5	59	28.3	0	1	315	0.00	30.194 
23:15	41.5	41.5	41.5	59	28.3	0	0	---	0.00	30.190 
23:20	41.3	41.3	41.3	60	28.5	0	0	---	0.00	30.190 
23:25	41.2	41.2	41.2	60	28.4	0	1	315	0.00	30.190 
23:30	41.2	41.2	41.2	60	28.4	0	0	---	0.00	30.191 
23:35	41.2	41.2	41.2	62	29.2	0	0	---	0.00	30.191 
23:40	40.9	40.9	40.9	63	29.3	0	0	---	0.00	30.191 
23:45	40.8	40.8	40.8	64	29.6	0	0	---	0.00	30.188 
23:50	40.6	40.6	40.6	65	29.8	0	3	45	0.00	30.188 
23:55	40.6	40.6	40.6	66	30.1	0	1	45	0.00	30.188 

CoCoRaHS
IN-AL-39
A2 Web Hosting
Creative Commons License
GoDaddy
search engine by freefind advanced

loaded 2018-11-17 06:58:42 • last modified 2010-11-18 10:43:29
Privacy PolicyDisclaimer
• wx.awcolley.com is powered by PmWiki v.2002016 •
• all content (unless otherwise noted) © 2018 A W Colley